createdAt,value
2018-07-09T00:00:35.773Z,12.92
2018-07-09T00:03:02.973Z,12.85
2018-07-09T00:05:29.903Z,12.79
2018-07-09T00:07:56.808Z,12.76
2018-07-09T00:11:01.216Z,12.71
2018-07-09T00:13:28.864Z,12.70
2018-07-09T00:15:56.150Z,12.67
2018-07-09T00:18:23.072Z,12.67
2018-07-09T00:20:50.011Z,12.68
2018-07-09T00:23:17.024Z,12.62
2018-07-09T00:25:44.837Z,12.64
2018-07-09T00:28:11.753Z,12.61
2018-07-09T00:30:38.716Z,12.58
2018-07-09T00:33:05.737Z,12.56
2018-07-09T00:35:32.631Z,12.53
2018-07-09T00:37:59.556Z,12.52
2018-07-09T00:40:26.504Z,12.54
2018-07-09T00:42:53.493Z,12.49
2018-07-09T00:45:20.421Z,12.47
2018-07-09T00:47:47.357Z,12.47
2018-07-09T00:50:14.267Z,12.42
2018-07-09T00:52:41.191Z,12.39
2018-07-09T00:55:08.124Z,12.39
2018-07-09T00:57:35.193Z,12.36
2018-07-09T01:00:02.207Z,12.38
2018-07-09T01:02:29.176Z,12.39
2018-07-09T01:04:56.123Z,12.37
2018-07-09T01:07:23.047Z,12.33
2018-07-09T01:09:49.980Z,12.31
2018-07-09T01:12:16.944Z,12.31
2018-07-09T01:14:43.863Z,12.25
2018-07-09T01:17:10.842Z,12.33
2018-07-09T01:19:37.813Z,12.35
2018-07-09T01:22:05.441Z,12.36
2018-07-09T01:24:32.395Z,12.35
2018-07-09T01:26:59.640Z,12.32
2018-07-09T01:29:26.626Z,12.30
2018-07-09T01:31:53.596Z,12.29
2018-07-09T01:34:20.545Z,12.32
2018-07-09T01:36:47.501Z,12.22
2018-07-09T01:39:14.512Z,12.27
2018-07-09T01:41:41.452Z,12.31
2018-07-09T01:44:08.513Z,12.44
2018-07-09T01:46:35.452Z,12.48
2018-07-09T01:49:02.376Z,12.57
2018-07-09T01:51:29.316Z,12.57
2018-07-09T01:53:56.244Z,12.54
2018-07-09T01:56:23.240Z,12.55
2018-07-09T01:58:50.213Z,12.50
2018-07-09T02:01:17.184Z,12.52
2018-07-09T02:03:44.144Z,12.41
2018-07-09T02:06:11.041Z,12.42
2018-07-09T02:08:38.154Z,12.44
2018-07-09T02:11:05.140Z,12.41
2018-07-09T02:13:32.053Z,12.36
2018-07-09T02:15:58.955Z,12.50
2018-07-09T02:18:25.975Z,12.42
2018-07-09T02:20:52.859Z,12.29
2018-07-09T02:23:19.776Z,12.25
2018-07-09T02:25:46.675Z,12.14
2018-07-09T02:28:13.624Z,12.25
2018-07-09T02:30:40.568Z,12.29
2018-07-09T02:33:07.493Z,12.39
2018-07-09T02:35:34.419Z,12.38
2018-07-09T02:38:01.331Z,12.43
2018-07-09T02:40:28.252Z,12.50
2018-07-09T02:42:55.185Z,12.68
2018-07-09T02:45:22.114Z,12.72
2018-07-09T02:47:49.076Z,12.75
2018-07-09T02:50:16.012Z,12.87
2018-07-09T02:52:42.925Z,12.89
2018-07-09T02:55:09.843Z,13.00
2018-07-09T02:57:36.781Z,13.00
2018-07-09T03:00:03.728Z,13.01
2018-07-09T03:02:30.664Z,13.07
2018-07-09T03:04:57.666Z,13.15
2018-07-09T03:07:24.568Z,13.24
2018-07-09T03:09:51.487Z,13.31
2018-07-09T03:12:18.433Z,13.32
2018-07-09T03:14:45.356Z,13.42
2018-07-09T03:17:12.272Z,13.53
2018-07-09T03:19:39.220Z,13.72
2018-07-09T03:22:06.332Z,13.82
2018-07-09T03:24:33.239Z,13.83
2018-07-09T03:27:00.205Z,13.79
2018-07-09T03:29:27.132Z,13.77
2018-07-09T03:31:54.053Z,13.72
2018-07-09T03:34:21.018Z,13.79
2018-07-09T03:36:47.969Z,13.72
2018-07-09T03:39:15.368Z,13.69
2018-07-09T03:41:42.307Z,13.75
2018-07-09T03:44:09.241Z,13.84
2018-07-09T03:46:36.180Z,13.81
2018-07-09T03:49:03.118Z,13.87
2018-07-09T03:51:30.049Z,13.89
2018-07-09T03:53:56.984Z,14.02
2018-07-09T03:56:23.921Z,13.98
2018-07-09T03:58:50.848Z,13.97
2018-07-09T04:01:17.756Z,14.20
2018-07-09T04:03:44.665Z,14.15
2018-07-09T04:08:45.096Z,14.37
2018-07-09T04:11:11.996Z,14.32
2018-07-09T04:13:38.891Z,14.40
2018-07-09T04:16:05.809Z,14.31
2018-07-09T04:18:32.700Z,14.42
2018-07-09T04:20:59.688Z,14.53
2018-07-09T04:23:26.476Z,14.69
2018-07-09T04:25:53.378Z,14.81
2018-07-09T04:28:20.768Z,14.94
2018-07-09T04:30:48.228Z,15.04
2018-07-09T04:33:15.117Z,15.10
2018-07-09T04:35:42.015Z,15.22
2018-07-09T04:38:08.908Z,15.35
2018-07-09T04:40:35.821Z,15.53
2018-07-09T04:43:02.732Z,15.60
2018-07-09T04:45:29.632Z,15.64
2018-07-09T04:47:56.540Z,15.72
2018-07-09T04:50:23.449Z,15.74
2018-07-09T04:52:50.640Z,15.85
2018-07-09T04:55:17.663Z,15.91
2018-07-09T04:57:44.584Z,16.02
2018-07-09T05:00:11.488Z,16.10
2018-07-09T05:02:38.397Z,16.20
2018-07-09T05:05:05.324Z,16.18
2018-07-09T05:07:32.212Z,16.20
2018-07-09T05:09:59.154Z,16.19
2018-07-09T05:12:26.058Z,16.23
2018-07-09T05:14:52.956Z,16.12
2018-07-09T05:17:19.848Z,16.11
2018-07-09T05:19:46.762Z,16.17
2018-07-09T05:22:13.653Z,16.20
2018-07-09T05:24:40.551Z,16.22
2018-07-09T05:27:07.710Z,16.31
2018-07-09T05:29:34.616Z,16.29
2018-07-09T05:32:01.537Z,16.35
2018-07-09T05:34:28.450Z,16.29
2018-07-09T05:36:55.365Z,16.25
2018-07-09T05:39:22.335Z,16.21
2018-07-09T05:41:49.256Z,16.24
2018-07-09T05:44:16.163Z,16.29
2018-07-09T05:46:43.096Z,16.27
2018-07-09T05:49:10.026Z,16.25
2018-07-09T05:51:36.957Z,16.30
2018-07-09T05:54:03.883Z,16.43
2018-07-09T05:56:30.850Z,16.34
2018-07-09T05:58:57.843Z,16.39
2018-07-09T06:01:24.775Z,16.45
2018-07-09T06:03:51.725Z,16.36
2018-07-09T06:06:18.654Z,16.37
2018-07-09T06:08:45.996Z,16.47
2018-07-09T06:11:12.981Z,16.62
2018-07-09T06:13:39.856Z,16.62
2018-07-09T06:16:06.786Z,16.59
2018-07-09T06:18:33.724Z,16.71
2018-07-09T06:21:00.661Z,16.78
2018-07-09T06:23:27.571Z,16.92
2018-07-09T06:25:54.510Z,16.75
2018-07-09T06:28:21.430Z,16.69
2018-07-09T06:30:48.385Z,16.72
2018-07-09T06:33:15.296Z,16.74
2018-07-09T06:35:42.224Z,16.82
2018-07-09T06:38:09.150Z,16.84
2018-07-09T06:40:36.329Z,16.87
2018-07-09T06:43:03.300Z,16.81
2018-07-09T06:45:30.217Z,16.81
2018-07-09T06:47:57.120Z,16.97
2018-07-09T06:50:24.044Z,16.92
2018-07-09T06:52:50.969Z,17.04
2018-07-09T06:55:17.918Z,17.07
2018-07-09T06:57:44.820Z,17.06
2018-07-09T07:00:11.727Z,17.30
2018-07-09T07:02:38.676Z,17.36
2018-07-09T07:05:05.590Z,17.48
2018-07-09T07:07:32.531Z,17.32
2018-07-09T07:09:59.472Z,17.36
2018-07-09T07:12:26.403Z,17.34
2018-07-09T07:14:53.335Z,17.50
2018-07-09T07:17:20.257Z,17.48
2018-07-09T07:19:47.169Z,17.84
2018-07-09T07:22:14.090Z,17.94
2018-07-09T07:24:40.990Z,18.02
2018-07-09T07:27:07.929Z,17.78
2018-07-09T07:29:34.841Z,18.39
2018-07-09T07:32:01.749Z,17.95
2018-07-09T07:34:28.640Z,18.81
2018-07-09T07:36:55.568Z,19.23
2018-07-09T07:39:22.524Z,19.31
2018-07-09T07:41:49.405Z,19.04
2018-07-09T07:44:16.304Z,18.72
2018-07-09T07:46:43.208Z,18.64
2018-07-09T07:49:10.108Z,18.71
2018-07-09T07:51:37.283Z,18.88
2018-07-09T07:54:04.233Z,18.80
2018-07-09T07:56:31.154Z,18.79
2018-07-09T07:58:58.053Z,19.13
2018-07-09T08:01:24.981Z,19.67
2018-07-09T08:03:51.907Z,19.13
2018-07-09T08:06:18.865Z,19.37
2018-07-09T08:08:45.801Z,19.75
2018-07-09T08:11:12.740Z,20.01
2018-07-09T08:13:39.684Z,19.93
2018-07-09T08:16:06.968Z,19.59
2018-07-09T08:18:33.934Z,19.38
2018-07-09T08:21:00.845Z,19.16
2018-07-09T08:23:27.784Z,19.22
2018-07-09T08:25:54.710Z,19.00
2018-07-09T08:28:21.653Z,18.85
2018-07-09T08:30:48.621Z,18.60
2018-07-09T08:33:15.539Z,18.78
2018-07-09T08:35:42.453Z,18.72
2018-07-09T08:38:09.414Z,18.46
2018-07-09T08:40:36.343Z,18.63
2018-07-09T08:43:03.309Z,18.59
2018-07-09T08:45:30.243Z,18.75
2018-07-09T08:47:57.187Z,19.06
2018-07-09T08:50:24.157Z,18.53
2018-07-09T08:52:51.093Z,18.38
2018-07-09T08:55:18.043Z,18.36
2018-07-09T08:57:44.984Z,18.27
2018-07-09T09:00:11.925Z,17.77
2018-07-09T09:02:38.847Z,18.11
2018-07-09T09:05:05.772Z,18.25
2018-07-09T09:07:33.033Z,18.46
2018-07-09T09:09:59.971Z,18.34
2018-07-09T09:12:26.878Z,18.21
2018-07-09T09:14:53.793Z,18.05
2018-07-09T09:17:20.717Z,17.78
2018-07-09T09:19:47.617Z,17.93
2018-07-09T09:22:14.566Z,18.14
2018-07-09T09:24:41.468Z,18.44
2018-07-09T09:27:08.400Z,18.53
2018-07-09T09:29:35.320Z,17.87
2018-07-09T09:32:02.248Z,17.79
2018-07-09T09:34:29.228Z,18.06
2018-07-09T09:36:56.156Z,18.06
2018-07-09T09:39:23.072Z,18.05
2018-07-09T09:41:50.009Z,18.33
2018-07-09T09:44:16.940Z,18.60
2018-07-09T09:46:43.851Z,18.27
2018-07-09T09:49:10.800Z,18.24
2018-07-09T09:51:37.708Z,18.13
2018-07-09T09:54:04.680Z,17.76
2018-07-09T09:56:31.606Z,17.55
2018-07-09T09:58:58.627Z,17.74
2018-07-09T10:01:25.548Z,17.84
2018-07-09T10:03:52.479Z,17.74
2018-07-09T10:06:19.392Z,17.52
2018-07-09T10:08:46.377Z,17.29
2018-07-09T10:11:13.287Z,17.54
2018-07-09T10:13:40.204Z,17.27
2018-07-09T10:16:07.112Z,17.45
2018-07-09T10:18:34.104Z,17.16
2018-07-09T10:21:01.009Z,16.74
2018-07-09T10:23:27.941Z,17.33
2018-07-09T10:25:54.812Z,17.67
2018-07-09T10:28:21.767Z,17.69
2018-07-09T10:30:48.668Z,18.08
2018-07-09T10:33:15.584Z,18.43
2018-07-09T10:35:42.504Z,17.70
2018-07-09T10:38:09.427Z,18.05
2018-07-09T10:40:36.357Z,17.71
2018-07-09T10:43:03.271Z,17.45
2018-07-09T10:45:30.159Z,17.47
2018-07-09T10:47:57.070Z,17.74
2018-07-09T10:50:24.000Z,17.70
2018-07-09T10:52:50.900Z,18.01
2018-07-09T10:55:17.833Z,17.49
2018-07-09T10:57:44.721Z,17.47
2018-07-09T11:00:11.664Z,17.76
2018-07-09T11:02:38.577Z,17.62
2018-07-09T11:05:05.625Z,17.32
2018-07-09T11:07:32.528Z,17.75
2018-07-09T11:09:59.461Z,17.95
2018-07-09T11:12:26.392Z,17.68
2018-07-09T11:14:53.324Z,17.45
2018-07-09T11:17:20.280Z,17.35
2018-07-09T11:19:47.213Z,17.55
2018-07-09T11:22:18.321Z,17.54
2018-07-09T11:24:46.491Z,17.38
2018-07-09T11:27:14.958Z,17.50
2018-07-09T11:29:43.383Z,17.40
2018-07-09T11:32:11.652Z,17.30
2018-07-09T11:34:39.552Z,17.11
2018-07-09T11:37:08.059Z,17.44
2018-07-09T11:39:36.281Z,17.62
2018-07-09T11:42:05.923Z,17.60
2018-07-09T11:44:34.831Z,17.46
2018-07-09T11:47:04.267Z,17.30
2018-07-09T11:49:33.244Z,17.55
2018-07-09T11:52:01.912Z,17.62
2018-07-09T11:54:30.813Z,17.41
2018-07-09T11:57:00.039Z,17.85
2018-07-09T11:59:29.218Z,18.17
2018-07-09T12:01:58.225Z,17.87
2018-07-09T12:04:27.334Z,17.80
2018-07-09T12:06:55.853Z,17.61
2018-07-09T12:09:24.739Z,17.74
2018-07-09T12:11:55.111Z,17.88
2018-07-09T12:14:22.521Z,18.19
2018-07-09T12:16:51.406Z,17.41
2018-07-09T12:19:20.187Z,17.46
2018-07-09T12:21:47.125Z,17.42
2018-07-09T12:24:14.133Z,17.47
2018-07-09T12:26:41.054Z,17.54
2018-07-09T12:29:08.121Z,18.23
2018-07-09T12:31:34.944Z,18.29
2018-07-09T12:34:01.886Z,18.15
2018-07-09T12:36:29.219Z,17.53
2018-07-09T12:38:56.059Z,17.41
2018-07-09T12:41:22.977Z,17.04
2018-07-09T12:43:49.955Z,17.08
2018-07-09T12:46:16.867Z,17.10
2018-07-09T12:48:43.788Z,17.38
2018-07-09T12:51:10.753Z,17.07
2018-07-09T12:53:37.663Z,16.96
2018-07-09T12:56:04.789Z,16.98
2018-07-09T12:58:31.710Z,16.88
2018-07-09T13:00:58.668Z,17.01
2018-07-09T13:03:25.643Z,16.97
2018-07-09T13:05:54.193Z,16.89
2018-07-09T13:08:21.141Z,16.83
2018-07-09T13:10:50.622Z,17.11
2018-07-09T13:13:19.597Z,16.70
2018-07-09T13:15:46.529Z,16.88
2018-07-09T13:18:13.460Z,16.88
2018-07-09T13:20:40.432Z,16.96
2018-07-09T13:23:07.364Z,17.09
2018-07-09T13:25:34.296Z,16.96
2018-07-09T13:28:01.233Z,16.87
2018-07-09T13:30:28.160Z,17.09
2018-07-09T13:32:55.096Z,16.71
2018-07-09T13:35:22.048Z,16.59
2018-07-09T13:37:49.021Z,17.20
2018-07-09T13:40:15.968Z,17.14
2018-07-09T13:42:42.939Z,17.11
2018-07-09T13:45:09.881Z,17.14
2018-07-09T13:47:36.832Z,17.27
2018-07-09T13:50:04.000Z,17.25
2018-07-09T13:52:30.913Z,16.95
2018-07-09T13:54:57.897Z,17.13
2018-07-09T13:57:24.841Z,17.29
2018-07-09T13:59:51.780Z,17.41
2018-07-09T14:02:18.713Z,17.44
2018-07-09T14:04:45.640Z,17.70
2018-07-09T14:07:12.571Z,17.65
2018-07-09T14:09:39.505Z,17.59
2018-07-09T14:12:06.548Z,17.50
2018-07-09T14:14:33.453Z,17.42
2018-07-09T14:17:00.385Z,17.53
2018-07-09T14:20:37.422Z,17.71
2018-07-09T14:23:05.089Z,17.57
2018-07-09T14:25:32.058Z,17.66
2018-07-09T14:27:59.031Z,17.51
2018-07-09T14:30:25.968Z,17.77
2018-07-09T14:32:52.900Z,18.35
2018-07-09T14:35:19.819Z,18.08
2018-07-09T14:37:46.762Z,17.74
2018-07-09T14:40:13.712Z,17.76
2018-07-09T14:42:40.700Z,17.54
2018-07-09T14:45:07.630Z,17.38
2018-07-09T14:47:34.576Z,17.67
2018-07-09T14:50:01.824Z,18.10
2018-07-09T14:52:29.301Z,17.52
2018-07-09T14:54:56.224Z,17.28
2018-07-09T14:57:23.190Z,17.41
2018-07-09T14:59:50.124Z,17.56
2018-07-09T15:02:17.048Z,17.57
2018-07-09T15:04:44.344Z,17.67
2018-07-09T15:07:11.299Z,18.15
2018-07-09T15:09:38.313Z,18.25
2018-07-09T15:12:05.219Z,17.95
2018-07-09T15:14:32.535Z,18.10
2018-07-09T15:16:59.485Z,17.78
2018-07-09T15:19:26.432Z,17.79
2018-07-09T15:21:53.547Z,17.83
2018-07-09T15:24:20.468Z,17.77
2018-07-09T15:26:47.676Z,17.61
2018-07-09T15:29:14.629Z,17.37
2018-07-09T15:31:53.159Z,17.53
2018-07-09T15:34:20.407Z,17.23
2018-07-09T15:36:47.444Z,17.27
2018-07-09T15:39:14.431Z,17.18
2018-07-09T15:41:41.391Z,17.15
2018-07-09T15:44:08.305Z,16.54
2018-07-09T15:46:35.264Z,16.30
2018-07-09T15:49:02.247Z,16.36
2018-07-09T15:51:29.163Z,16.27
2018-07-09T15:53:56.280Z,16.42
2018-07-09T15:56:23.264Z,16.60
2018-07-09T15:58:50.239Z,16.55
2018-07-09T16:01:17.154Z,16.66
2018-07-09T16:03:44.088Z,16.64
2018-07-09T16:06:11.005Z,16.43
2018-07-09T16:08:37.959Z,16.33
2018-07-09T16:11:04.912Z,16.31
2018-07-09T16:13:31.861Z,16.25
2018-07-09T16:15:58.801Z,16.43
2018-07-09T16:18:25.720Z,16.46
2018-07-09T16:20:52.884Z,16.34
2018-07-09T16:23:19.821Z,16.42
2018-07-09T16:25:46.739Z,16.30
2018-07-09T16:28:13.672Z,16.29
2018-07-09T16:30:40.600Z,16.17
2018-07-09T16:33:07.533Z,16.37
2018-07-09T16:35:34.457Z,16.30
2018-07-09T16:38:01.369Z,16.38
2018-07-09T16:40:28.282Z,16.24
2018-07-09T16:42:55.216Z,16.16
2018-07-09T16:45:22.145Z,16.16
2018-07-09T16:47:49.072Z,16.21
2018-07-09T16:50:16.292Z,16.03
2018-07-09T16:52:43.228Z,15.91
2018-07-09T16:55:10.192Z,15.85
2018-07-09T16:57:43.817Z,15.94
2018-07-09T17:00:10.772Z,15.89
2018-07-09T17:02:37.712Z,16.16
2018-07-09T17:05:04.669Z,16.16
2018-07-09T17:07:31.593Z,15.88
2018-07-09T17:09:58.508Z,15.86
2018-07-09T17:12:25.439Z,15.88
2018-07-09T17:14:53.188Z,15.95
2018-07-09T17:17:20.144Z,15.75
2018-07-09T17:19:47.099Z,15.82
2018-07-09T17:22:13.992Z,15.93
2018-07-09T17:24:40.902Z,15.67
2018-07-09T17:27:07.896Z,15.78
2018-07-09T17:29:34.736Z,15.74
2018-07-09T17:32:01.695Z,15.68
2018-07-09T17:34:28.563Z,15.61
2018-07-09T17:36:55.452Z,15.61
2018-07-09T17:39:22.388Z,15.64
2018-07-09T17:41:49.341Z,15.65
2018-07-09T17:44:16.254Z,15.55
2018-07-09T17:46:43.193Z,15.49
2018-07-09T17:49:10.136Z,15.38
2018-07-09T17:51:37.408Z,15.37
2018-07-09T17:54:05.195Z,15.39
2018-07-09T17:56:32.111Z,15.28
2018-07-09T17:58:59.021Z,15.30
2018-07-09T18:01:26.033Z,15.34
2018-07-09T18:03:52.995Z,15.31
2018-07-09T18:06:19.903Z,15.19
2018-07-09T18:08:46.804Z,15.26
2018-07-09T18:11:13.796Z,15.35
2018-07-09T18:13:40.720Z,15.27
2018-07-09T18:16:07.584Z,15.22
2018-07-09T18:18:34.488Z,15.17
2018-07-09T18:21:01.441Z,15.13
2018-07-09T18:23:28.360Z,15.08
2018-07-09T18:25:55.264Z,15.11
2018-07-09T18:28:22.168Z,15.06
2018-07-09T18:30:49.056Z,14.97
2018-07-09T18:33:15.980Z,14.99
2018-07-09T18:35:45.909Z,15.01
2018-07-09T18:38:12.845Z,14.99
2018-07-09T18:40:39.745Z,15.00
2018-07-09T18:43:06.676Z,14.99
2018-07-09T18:45:33.598Z,14.95
2018-07-09T18:48:00.547Z,14.98
2018-07-09T18:50:27.460Z,14.97
2018-07-09T18:52:54.356Z,14.80
2018-07-09T18:55:21.349Z,14.88
2018-07-09T18:57:48.276Z,14.96
2018-07-09T19:00:15.188Z,14.96
2018-07-09T19:02:42.140Z,14.89
2018-07-09T19:05:09.069Z,14.94
2018-07-09T19:07:35.987Z,14.90
2018-07-09T19:10:03.019Z,14.78
2018-07-09T19:12:34.936Z,14.83
2018-07-09T19:15:04.042Z,14.82
2018-07-09T19:18:11.143Z,14.78
2018-07-09T19:21:18.500Z,14.77
2018-07-09T19:23:44.501Z,14.74
2018-07-09T19:26:10.525Z,14.67
2018-07-09T19:28:36.560Z,14.67
2018-07-09T19:31:02.616Z,14.64
2018-07-09T19:33:28.636Z,14.62
2018-07-09T19:35:54.664Z,14.54
2018-07-09T19:38:20.694Z,14.42
2018-07-09T19:40:46.716Z,14.41
2018-07-09T19:43:12.732Z,14.31
2018-07-09T19:45:38.786Z,14.27
2018-07-09T19:48:04.781Z,14.26
2018-07-09T19:50:30.809Z,14.23
2018-07-09T19:52:56.852Z,14.22
2018-07-09T19:55:22.885Z,14.28
2018-07-09T19:57:48.922Z,14.26
2018-07-09T20:00:14.946Z,14.33
2018-07-09T20:02:40.968Z,14.38
2018-07-09T20:05:07.130Z,14.39
2018-07-09T20:07:33.052Z,14.30
2018-07-09T20:10:04.846Z,14.28
2018-07-09T20:12:36.668Z,14.22
2018-07-09T20:15:08.484Z,14.23
2018-07-09T20:17:35.573Z,14.16
2018-07-09T20:20:01.602Z,14.17
2018-07-09T20:22:27.644Z,14.06
2018-07-09T20:24:53.665Z,14.03
2018-07-09T20:27:19.681Z,14.05
2018-07-09T20:29:45.704Z,14.01
2018-07-09T20:32:11.716Z,13.93
2018-07-09T20:34:37.740Z,13.97
2018-07-09T20:37:03.794Z,13.92
2018-07-09T20:39:29.834Z,13.88
2018-07-09T20:41:55.857Z,13.81
2018-07-09T20:44:21.865Z,13.72
2018-07-09T20:46:47.889Z,13.57
2018-07-09T20:49:13.892Z,13.66
2018-07-09T20:51:39.912Z,13.62
2018-07-09T20:54:05.925Z,13.41
2018-07-09T20:56:31.965Z,13.37
2018-07-09T20:58:57.983Z,13.43
2018-07-09T21:01:24.019Z,13.33
2018-07-09T21:03:54.638Z,13.30
2018-07-09T21:06:20.675Z,13.25
2018-07-09T21:08:46.690Z,13.20
2018-07-09T21:11:12.746Z,13.08
2018-07-09T21:13:38.764Z,13.11
2018-07-09T21:16:04.988Z,13.17
2018-07-09T21:18:30.835Z,13.09
2018-07-09T21:20:56.884Z,13.04
2018-07-09T21:23:22.894Z,13.04
2018-07-09T21:25:48.921Z,12.91
2018-07-09T21:28:14.951Z,13.03
2018-07-09T21:30:40.976Z,13.04
2018-07-09T21:33:06.985Z,13.05
2018-07-09T21:35:33.019Z,13.13
2018-07-09T21:37:59.057Z,13.16
2018-07-09T21:40:25.070Z,13.24
2018-07-09T21:42:51.140Z,13.33
2018-07-09T21:45:17.164Z,13.24
2018-07-09T21:47:43.173Z,13.19
2018-07-09T21:50:09.209Z,13.26
2018-07-09T21:52:35.291Z,13.35
2018-07-09T21:55:01.301Z,13.30
2018-07-09T21:57:27.337Z,13.18
2018-07-09T21:59:53.380Z,13.15
2018-07-09T22:02:19.421Z,13.01
2018-07-09T22:04:45.440Z,12.80
2018-07-09T22:07:11.494Z,12.80
2018-07-09T22:09:37.508Z,12.87
2018-07-09T22:12:03.553Z,12.80
2018-07-09T22:14:29.556Z,12.72
2018-07-09T22:16:55.605Z,12.66
2018-07-09T22:19:21.812Z,12.56
2018-07-09T22:21:47.970Z,12.53
2018-07-09T22:24:14.016Z,12.58
2018-07-09T22:26:40.047Z,12.59
2018-07-09T22:29:12.995Z,12.68
2018-07-09T22:31:40.149Z,12.84
2018-07-09T22:34:07.089Z,12.84
2018-07-09T22:36:34.030Z,12.93
2018-07-09T22:39:00.948Z,12.94
2018-07-09T22:41:27.901Z,12.91
2018-07-09T22:44:06.384Z,13.01
2018-07-09T22:46:33.309Z,12.97
2018-07-09T22:49:00.363Z,13.07
2018-07-09T22:51:27.321Z,12.86
2018-07-09T22:53:54.238Z,12.84
2018-07-09T22:56:21.433Z,12.82
2018-07-09T22:58:48.405Z,12.83
2018-07-09T23:01:15.524Z,12.80
2018-07-09T23:03:42.432Z,12.78
2018-07-09T23:06:09.380Z,12.76
2018-07-09T23:08:36.408Z,12.68
2018-07-09T23:11:15.098Z,12.68
2018-07-09T23:13:52.193Z,12.56
2018-07-09T23:16:55.828Z,12.54
2018-07-09T23:19:34.331Z,12.43
2018-07-09T23:22:12.796Z,12.42
2018-07-09T23:24:38.825Z,12.49
2018-07-09T23:27:05.005Z,12.60
2018-07-09T23:29:31.016Z,12.60
2018-07-09T23:31:57.039Z,12.69
2018-07-09T23:34:23.048Z,12.72
2018-07-09T23:36:49.056Z,12.68
2018-07-09T23:39:15.100Z,12.65
2018-07-09T23:41:41.121Z,12.72
2018-07-09T23:44:07.157Z,12.70
2018-07-09T23:46:33.169Z,12.74
2018-07-09T23:48:59.253Z,12.71
2018-07-09T23:51:25.478Z,12.77
2018-07-09T23:53:51.825Z,12.82
2018-07-09T23:56:59.944Z,12.81
2018-07-09T23:59:38.512Z,12.89
